• Join FlightAware (Why Join?)
  • Login
  • US Flag 
01:18AM EDT


 

Airport Tracker/Info


-or-


 

Live Flight TrackerFlight Track Log ✈ THU850 ✈ 07-Jul-2013 ✈ CYXU - CYQT

Flight Track Log - Related Links

Times and Time Zones

All times are in EDT time to prevent confusion due to time zone crossing. See the THU850 flight status page for this flight to view local times or setup timezone preferences in your user account.

Time Position Orientation Groundspeed Altitude Reporting Facility
EDT Latitude Longitude Course Direction KTS MPH feet Rate Location/Type
06:34PM 43.0833 -81.1833 340° North 210 242 2,800  Level Toronto Center
06:35PM 43.1333 -81.2167 334° Northwest 210 242 4,600 1,740 Climbing Toronto Center
06:36PM 43.1833 -81.2167 360° North 190 219 6,300 1,680 Climbing Toronto Center
06:37PM 43.2333 -81.2333 346° North 190 219 8,000 1,500 Climbing Toronto Center
06:38PM 43.4718 -81.3442 340° North  Level FlightAware Approximate
06:38PM 43.2833 -81.2667 334° Northwest 190 219 9,400  Level Toronto Center
06:39PM 43.5359 -81.3763 340° North  Level FlightAware Approximate
06:39PM 43.3500 -81.2833 350° North 200 230 10,600  Level Toronto Center
06:40PM 43.4000 -81.3000 346° North 210 242 11,900 1,140 Climbing Toronto Center
06:41PM 43.4500 -81.3333 334° Northwest 220 253 12,900 960 Climbing Toronto Center
06:42PM 43.5167 -81.3500 350° North 220 253 13,900 960 Climbing Toronto Center
06:43PM 43.5667 -81.3833 334° Northwest 230 265 14,900 960 Climbing Toronto Center
06:44PM 43.6333 -81.4333 332° Northwest 220 253 15,900 900 Climbing Toronto Center
06:45PM 43.7000 -81.4333 360° North 230 265 16,800 840 Climbing Toronto Center
06:46PM 43.7500 -81.4833 324° Northwest 220 253 17,700 840 Climbing Toronto Center
06:47PM 43.8167 -81.5000 350° North 220 253 18,500 720 Climbing Toronto Center
06:48PM 43.8667 -81.5333 334° Northwest 220 253 19,200 660 Climbing Toronto Center
06:49PM 43.9333 -81.5500 350° North 230 265 19,900 600 Climbing Toronto Center
06:50PM 44.0000 -81.5833 340° North 230 265 20,400 600 Climbing Toronto Center
06:51PM 44.0500 -81.6000 347° North 230 265 21,100 600 Climbing Toronto Center
06:52PM 44.1167 -81.6333 340° North 230 265 21,600 420 Climbing Toronto Center
06:53PM 44.1833 -81.6833 332° Northwest 240 276 22,000 240 Climbing Toronto Center
06:54PM 44.2500 -81.7000 350° North 250 288 22,100  Climbing Toronto Center
06:55PM 44.3167 -81.7333 340° North 260 299 22,000 -60 Descending Toronto Center
06:56PM 44.3833 -81.7833 332° Northwest 270 311 22,000  Level Toronto Center
06:57PM 44.4500 -81.8000 350° North 270 311 22,000 -60 Level Toronto Center
06:58PM 44.5333 -81.8333 344° North 270 311 21,900  Descending Toronto Center
06:59PM 44.6000 -81.8500 350° North 270 311 22,000  Climbing Toronto Center
07:00PM 44.6667 -81.9000 332° Northwest 270 311 22,000  Level Toronto Center
07:01PM 44.7333 -81.9333 340° North 270 311 22,000  Level Toronto Center
07:02PM 44.8000 -81.9667 340° North 260 299 22,000  Level Toronto Center
07:03PM 44.8667 -81.9833 350° North 260 299 22,000  Level Toronto Center
07:04PM 44.9333 -82.0333 332° Northwest 260 299 22,100 -60 Climbing Toronto Center
07:05PM 45.0000 -82.0667 341° North 260 299 21,900 -60 Descending Toronto Center
07:06PM 45.0667 -82.0833 350° North 260 299 22,000  Climbing Toronto Center
07:07PM 45.1333 -82.1167 341° North 260 299 22,000  Level Toronto Center
07:08PM 45.2000 -82.1333 350° North 260 299 22,000  Level Toronto Center
07:09PM 45.2833 -82.2000 331° Northwest 260 299 22,000  Level Toronto Center
07:10PM 45.3500 -82.2167 350° North 260 299 22,000  Level Toronto Center
07:11PM 45.4000 -82.3000 311° West 260 299 22,000  Level Toronto Center
07:12PM 45.4167 -82.3833 286° West 250 288 22,100  Climbing Toronto Center
07:13PM 45.4667 -82.4667 311° West 250 288 22,000 -60 Descending Toronto Center
07:14PM 45.5000 -82.5500 300° West 250 288 22,000  Level Toronto Center
07:15PM 45.5500 -82.6333 311° West 260 299 22,000  Level Toronto Center
07:16PM 45.5667 -82.7333 283° West 260 299 22,000  Level Toronto Center
07:17PM 45.6167 -82.8000 317° Northwest 260 299 22,100  Climbing Toronto Center
07:18PM 45.6667 -82.9000 306° West 260 299 22,000 -60 Descending Toronto Center
07:19PM 45.7000 -82.9667 306° West 250 288 22,000  Level Toronto Center
07:20PM 45.7500 -83.0500 311° West 250 288 22,000  Level Toronto Center
07:21PM 45.7833 -83.1500 296° West 250 288 22,100  Climbing Toronto Center
07:22PM 45.8167 -83.2167 306° West 250 288 22,000 -60 Descending Toronto Center
07:23PM 45.8500 -83.3000 300° West 250 288 22,000  Level Toronto Center
07:24PM 45.8833 -83.4000 296° West 250 288 22,000  Level Toronto Center
07:25PM 45.9167 -83.4667 306° West 250 288 22,000  Level Toronto Center
07:26PM 45.9667 -83.5667 306° West 250 288 22,000  Level Toronto Center
07:27PM 46.0000 -83.6333 306° West 250 288 22,100  Climbing Toronto Center
07:28PM 46.0500 -83.7167 311° West 250 288 22,000 -60 Descending Toronto Center
07:29PM 46.0667 -83.8167 284° West 250 288 22,000  Level Toronto Center
07:30PM 46.1167 -83.8833 317° Northwest 250 288 22,100  Climbing Toronto Center
07:31PM 46.1500 -83.9667 300° West 250 288 22,000 -60 Descending Toronto Center
07:32PM 46.2000 -84.0333 317° Northwest 250 288 22,000  Level Toronto Center
07:33PM 46.2500 -84.1333 306° West 250 288 22,000  Level Toronto Center
07:34PM 46.2833 -84.2167 300° West 250 288 22,100  Climbing Toronto Center
07:35PM 46.3000 -84.2833 290° West 240 276 22,100 -60 Level Toronto Center
07:36PM 46.3500 -84.3833 306° West 240 276 22,000  Descending Toronto Center
07:37PM 46.3833 -84.4667 300° West 240 276 22,100  Climbing Toronto Center
07:38PM 46.4167 -84.5500 300° West 240 276 22,000 -60 Descending Toronto Center
07:39PM 46.4500 -84.6500 296° West 240 276 22,000  Level Toronto Center
07:40PM 46.4833 -84.7167 306° West 240 276 22,000  Level Toronto Center
07:41PM 46.5333 -84.8000 311° West 240 276 22,000  Level Toronto Center
07:42PM 46.5667 -84.8667 306° West 240 276 22,000  Level Toronto Center
07:43PM 46.6000 -84.9667 296° West 250 288 22,000  Level Toronto Center
07:44PM 46.6333 -85.0500 300° West 240 276 22,000  Level Toronto Center
07:45PM 46.6667 -85.0833 326° Northwest 250 288 22,000  Level Winnipeg Center
07:46PM 46.7167 -85.2000 302° West 250 288 22,000  Level Toronto Center
07:47PM 46.7500 -85.3000 296° West 250 288 22,000  Level Toronto Center
07:48PM 46.7833 -85.3833 300° West 250 288 22,000  Level Toronto Center
07:49PM 46.8167 -85.4500 306° West 250 288 22,100  Climbing Toronto Center
07:50PM 46.8500 -85.5500 296° West 250 288 22,000 -120 Descending Toronto Center
07:51PM 46.8833 -85.6333 300° West 250 288 21,900  Descending Toronto Center
07:52PM 46.9167 -85.7333 296° West 250 288 22,000  Climbing Toronto Center
07:53PM 46.9500 -85.8167 300° West 250 288 22,000  Level Toronto Center
07:54PM 47.0000 -85.8833 318° Northwest 250 288 22,000  Level Toronto Center
07:55PM 47.0333 -86.0000 293° West 250 288 22,000  Level Toronto Center
07:56PM 47.0500 -86.0667 290° West 250 288 22,000  Level Toronto Center
07:57PM 47.1000 -86.1333 318° Northwest 250 288 22,000  Level Winnipeg Center
07:58PM 47.1333 -86.2500 293° West 250 288 22,000  Level Toronto Center
07:59PM 47.1667 -86.2833 326° Northwest 250 288 22,000  Level Winnipeg Center
08:00PM 47.2167 -86.3667 311° West 250 288 22,100  Climbing Winnipeg Center
08:01PM 47.2500 -86.5167 288° West 250 288 22,000 -60 Descending Toronto Center
08:02PM 47.2833 -86.5833 306° West 260 299 22,000  Level Toronto Center
08:03PM 47.3167 -86.7000 293° West 260 299 22,000  Level Toronto Center
08:04PM 47.3667 -86.7667 318° Northwest 260 299 22,000  Level Toronto Center
08:05PM 47.3833 -86.8333 290° West 260 299 22,000  Level Winnipeg Center
08:06PM 47.4167 -86.9333 296° West 260 299 22,000  Level Winnipeg Center
08:07PM 47.4500 -87.0167 301° West 260 299 22,000  Level Winnipeg Center
08:08PM 47.5000 -87.0833 318° Northwest 260 299 22,100  Climbing Winnipeg Center
08:09PM 47.5333 -87.2000 293° West 260 299 22,100 -60 Level Winnipeg Center
08:10PM 47.5667 -87.3000 296° West 260 299 22,000  Descending Winnipeg Center
08:11PM 47.6000 -87.3667 307° West 260 299 22,100  Climbing Winnipeg Center
08:12PM 47.6500 -87.4500 312° West 260 299 22,000  Descending Winnipeg Center
08:13PM 47.6667 -87.5500 284° West 260 299 22,100  Climbing Winnipeg Center
08:14PM 47.7167 -87.6333 312° West 260 299 22,000 -60 Descending Winnipeg Center
08:15PM 47.7500 -87.7333 296° West 260 299 22,000  Level Winnipeg Center
08:16PM 47.8000 -87.8167 312° West 260 299 22,000  Level Winnipeg Center
08:17PM 47.8333 -87.9167 296° West 260 299 22,000  Level Winnipeg Center
08:18PM 47.8667 -88.0167 296° West 260 299 22,000 -960 Level Winnipeg Center
08:19PM 47.9000 -88.1000 301° West 280 322 20,100 -1,860 Descending Winnipeg Center
08:20PM 47.9500 -88.2167 303° West 310 357 18,300 -1,920 Descending Winnipeg Center
08:21PM 47.9667 -88.3500 281° West 310 357 16,300 -1,920 Descending Winnipeg Center
08:22PM 48.0000 -88.4667 293° West 300 345 14,500 -1,680 Descending Winnipeg Center
08:23PM 48.0333 -88.5500 301° West 290 334 13,000 -1,560 Descending Winnipeg Center
08:24PM 48.0667 -88.6833 291° West 280 322 11,400 -1,440 Descending Winnipeg Center
08:25PM 48.0833 -88.7833 284° West 270 311 10,200 -1,380 Descending Winnipeg Center
08:26PM 48.1333 -88.8667 312° West 270 311 8,700 -1,380 Descending Winnipeg Center
08:27PM 48.1333 -89.0000 270° West 270 311 7,500 -1,200 Descending Winnipeg Center
08:28PM 48.1500 -89.1000 284° West 260 299 6,400 -1,080 Descending Winnipeg Center
08:29PM 48.1667 -89.1833 287° West 250 288 5,400 -660 Descending Winnipeg Center
08:30PM 48.1833 -89.2833 284° West 250 288 5,100 -180 Descending Winnipeg Center
08:31PM 48.2000 -89.3833 284° West 220 253 5,100 -360 Level Winnipeg Center
08:32PM 48.2167 -89.4833 284° West 220 253 4,400 -840 Descending Winnipeg Center
08:33PM 48.2500 -89.5500 307° West 210 242 3,500 -660 Descending Winnipeg Center
08:34PM 48.3000 -89.5500 360° North 170 196 3,100 -300 Descending Winnipeg Center
08:35PM 48.3000 -89.5000 90° East 150 173 3,000 -240 Descending Winnipeg Center
08:36PM 48.3167 -89.4500 63° Northeast 130 150 2,700 -540 Descending Winnipeg Center
08:37PM 48.3333 -89.3833 69° East 110 127 2,000 -720 Descending Winnipeg Center
08:38PM 48.3500 -89.3333 63° Northeast 110 127 1,300 -600 Descending Winnipeg Center
08:39PM 48.3500 -89.3167 90° East 110 127 800 -300 Descending Winnipeg Center
08:40PM 48.3667 -89.2833 53° Northeast 30 35 700 -120 Descending Winnipeg Center